Old Orchard Beach, Maine
Current Conditions -  °F | °C
As of 8:51 AM on Thursday 30 Oct 2014 (Local Time) from KPWM Reporting Station
Broken Clouds Broken Clouds  
Wind Chill: 41°   Ceiling: 8000
Heat Index: 45°   Visibility: 10mi
Dew Point: 40°   Wind: 7mph
Humidity: 82%   Direction: 310°NW
Pressure: 29.91"   Gusts: NA
Location:  43.52°N, 70.38°W
Report Text: KPWM 301251Z 31006KT 10SM BKN080 07/04 A2991 RMK AO2 SLP127 T00720044
Loading
Personal Weather Stations






























Interactive Weather Map New forecast layout! Learn more

10-Day Weather Forecast

Advertisements
Track Severe Weather on mobile